Kezdőlap
METAR-TAF:

METAR-TAF

Repülőterek :

Katowice, Lengyelország

földrajzi szélesség: 50-28-27N, földrajzi hosszúság: 019-04-48E, magasság: 284 m

Jelenlegi meteorológiai megfigyelések

A jelentés 44 perccel ezelõtt készült, 04:00 UTC
Délkeleti szél 5 kt
Hőmérséklet 13°C
Páratartalom 77%
Légköri nyomás 1013 hPa
Látótávolság 10 km, vagy több
felhőtlen 1500 m magasságban, és nincs gomolyfelhõ

METAR: EPKT 150400Z 13005KT CAVOK 13/09 Q1013

Idő: 06:44 (04:44 UTC)

Előrejelzés

A jelentés 5 órával és 14 perccel ezelõtt készült, 23:30 UTC
Az előrejelzés 15-én 00 óra UTC és 15-én 24 óra UTC között érvényes
Délkeleti szél 5 kt
Látótávolság 10 km, vagy több
felhőtlen 1500 m magasságban, és nincs gomolyfelhõ
Valószínűség 40% :
15-én 10 óra UTC és 15-én 16 óra UTC között ideiglenes
Dél-délkeleti szél 15 kt széllökések: 25 kt

TAF: EPKT 142330Z 1500/1524 13005KT CAVOK PROB40 TEMPO 1510/1516 16015G25KT

Meteorológiai megfigyelések és előrejelzések több, mint 4000 repülőtéren (METAR és TAF jelentéseket).

A térképen piros és sárga pontok jelzik az elérhető meteorológiai állomásokat.

Mozgassa az egeret a pont fölött, hogy megjelenjen az állomás neve.

Azután kattintson az időjárási megfigyelések és előrejelzések megtekintéséhez.

A térkép megváltoztatása: kattintson a fekete keresztel jelölt zöld gombra ráközelítéshez, a vonallal jelölt zöld gombra távolításhoz, vagy a zöld nyilakra a szomszédos térképek eléréséhez.


METAR-TAF: